• Join FlightAware (Why Join?)
  • Login
  • US Flag 
06:27AM EDT


 

Airport Tracker/Info


-or-


 

Live Flight TrackerFlight Track Log ✈ N84XP ✈ 31-Aug-2013 ✈ KACB - KRMG

Flight Track Log - Related Links

Times and Time Zones

All times are in EDT time to prevent confusion due to time zone crossing. See the N84XP flight status page for this flight to view local times or setup timezone preferences in your user account.

Time Position Orientation Groundspeed Altitude Reporting Facility
EDT Latitude Longitude Course Direction KTS MPH feet Rate Location/Type
11:48AM 44.9058 -85.2117 180° South 173 199 4,000  Level Minneapolis Center
11:49AM 44.8583 -85.2131 181° South 171 197 5,800 1,740 Climbing Minneapolis Center
11:50AM 44.8072 -85.2125 180° South 175 201 7,600 1,740 Climbing Minneapolis Center
11:51AM 44.7556 -85.2103 178° South 181 208 9,400 1,740 Climbing Minneapolis Center
11:52AM 44.7047 -85.2072 178° South 182 209 11,300 1,980 Climbing Minneapolis Center
11:53AM 44.6117 -85.1833 180° South  Level FlightAware Approximate
11:53AM 44.6414 -85.2033 177° South 187 215 13,600  Level Minneapolis Center
11:54AM 44.5900 -85.2033 180° South 186 214 15,500 1,680 Climbing Minneapolis Center
11:55AM 44.5281 -85.2056 181° South 185 213 17,500 1,740 Climbing Minneapolis Center
11:56AM 44.4753 -85.2067 181° South 188 216 19,200 1,500 Climbing Minneapolis Center
11:57AM 44.4233 -85.2067 180° South 187 215 20,700 1,380 Climbing Minneapolis Center
11:58AM 44.3694 -85.2056 179° South 192 221 22,100 1,500 Climbing Minneapolis Center
11:59AM 44.3053 -85.2056 180° South 192 221 23,900 1,500 Climbing Minneapolis Center
12:01PM 44.2525 -85.2053 180° South 189 217 25,200 960 Climbing Minneapolis Center
12:02PM 44.1986 -85.2050 180° South 192 221 26,000 420 Climbing Minneapolis Center
12:03PM 44.1322 -85.2069 181° South 220 253 26,100  Climbing Minneapolis Center
12:04PM 44.0547 -85.2081 181° South 259 298 26,100  Level Minneapolis Center
12:05PM 43.9739 -85.2086 180° South 279 321 26,100  Level Minneapolis Center
12:06PM 43.8781 -85.2078 180° South 285 328 26,100 -60 Level Minneapolis Center
12:07PM 43.7831 -85.2047 179° South 284 327 26,000 -60 Descending Minneapolis Center
12:08PM 43.7056 -85.2061 181° South 281 323 26,000  Level Minneapolis Center
12:09PM 43.6289 -85.2056 180° South 277 319 26,000  Level Minneapolis Center
12:10PM 43.5828 -85.2047 179° South 277 319 26,000  Level Chicago Center
12:11PM 43.5061 -85.2044 180° South 275 316 26,000  Level Chicago Center
12:12PM 43.4289 -85.2031 179° South 277 319 26,000  Level Chicago Center
12:13PM 43.3511 -85.2025 180° South 278 320 26,000  Level Chicago Center
12:14PM 43.2733 -85.1997 179° South 278 320 26,000  Level Chicago Center
12:15PM 43.1814 -85.2003 180° South 276 318 26,000  Level Chicago Center
12:16PM 43.1056 -85.1997 180° South 272 313 26,000  Level Chicago Center
12:17PM 43.0281 -85.1992 180° South 275 316 26,000  Level Chicago Center
12:18PM 42.9533 -85.1981 179° South 270 311 26,000  Level Chicago Center
12:19PM 42.8764 -85.1989 180° South 274 315 26,000  Level Chicago Center
12:20PM 42.7997 -85.1992 180° South 275 316 26,000  Level Chicago Center
12:21PM 42.7233 -85.1978 179° South 274 315 26,000  Level Chicago Center
12:22PM 42.6319 -85.1967 179° South 273 314 26,000  Level Chicago Center
12:23PM 42.5553 -85.1961 180° South 274 315 26,000  Level Chicago Center
12:24PM 42.4786 -85.1961 180° South 276 318 26,000  Level Chicago Center
12:25PM 42.4008 -85.1953 180° South 278 320 26,000  Level Chicago Center
12:26PM 42.3236 -85.1947 180° South 277 319 26,000  Level Chicago Center
12:27PM 42.2458 -85.1947 180° South 279 321 26,000  Level Chicago Center
12:28PM 42.1672 -85.1944 180° South 281 323 26,000  Level Chicago Center
12:29PM 42.0739 -85.1928 179° South 280 322 26,000  Level Chicago Center
12:30PM 41.9958 -85.1914 179° South 280 322 26,000  Level Chicago Center
12:31PM 41.9225 -85.1947 182° South 281 323 26,000  Level Chicago Center
12:32PM 41.8447 -85.1936 179° South 278 320 26,000  Level Chicago Center
12:33PM 41.7503 -85.1928 180° South 280 322 26,000  Level Chicago Center
12:34PM 41.6708 -85.1922 180° South 281 323 26,000  Level Chicago Center
12:35PM 41.5914 -85.1911 179° South 282 325 26,000  Level Chicago Center
12:36PM 41.5119 -85.1908 180° South 282 325 26,000  Level Chicago Center
12:37PM 41.4331 -85.1903 180° South 283 326 26,000  Level Chicago Center
12:38PM 41.3542 -85.1906 180° South 282 325 26,000  Level Chicago Center
12:40PM 41.2753 -85.1897 180° South 283 326 26,000  Level Chicago Center
12:41PM 41.1967 -85.1892 180° South 282 325 26,000  Level Chicago Center
12:42PM 41.1017 -85.1872 179° South 284 327 26,000  Level Chicago Center
12:43PM 41.0231 -85.1881 180° South 283 326 26,000  Level Chicago Center
12:44PM 40.9447 -85.1883 180° South 283 326 26,000  Level Chicago Center
12:45PM 40.8658 -85.1856 178° South 283 326 26,000  Level Chicago Center
12:46PM 40.7864 -85.1872 181° South 285 328 26,000  Level Chicago Center
12:47PM 40.7064 -85.1858 179° South 286 329 26,000  Level Chicago Center
12:48PM 40.6214 -85.1872 181° South 287 330 26,000  Level Chicago Center
12:49PM 40.5414 -85.1856 179° South 287 330 26,000  Level Chicago Center
12:50PM 40.4617 -85.1856 180° South 287 330 26,000  Level Chicago Center
12:51PM 40.3672 -85.1867 181° South 286 329 26,000  Level Chicago Center
12:52PM 40.2881 -85.1869 180° South 285 328 26,000  Level Chicago Center
12:53PM 40.2094 -85.1858 179° South 283 326 26,000  Level Chicago Center
12:54PM 40.1317 -85.1847 179° South 281 323 26,000  Level Chicago Center
12:55PM 40.0508 -85.1847 180° South 283 326 26,000  Level Indianapolis Center
12:56PM 39.9725 -85.1847 180° South 282 325 26,000  Level Indianapolis Center
12:57PM 39.8939 -85.1844 180° South 282 325 26,000  Level Indianapolis Center
12:58PM 39.8142 -85.1819 179° South 285 328 26,000  Level Indianapolis Center
12:59PM 39.7369 -85.1825 180° South 280 322 26,000  Level Indianapolis Center
01:00PM 39.6419 -85.1825 180° South 285 328 26,000  Level Indianapolis Center
01:01PM 39.5639 -85.1819 180° South 282 325 26,000  Level Indianapolis Center
01:02PM 39.4842 -85.1814 180° South 284 327 26,000  Level Indianapolis Center
01:03PM 39.4064 -85.1808 180° South 281 323 26,000  Level Indianapolis Center
01:04PM 39.3275 -85.1811 180° South 284 327 26,000  Level Indianapolis Center
01:05PM 39.2497 -85.1808 180° South 281 323 26,000 240 Level Indianapolis Center
01:06PM 39.1711 -85.1811 180° South 282 325 26,500 780 Climbing Indianapolis Center
01:07PM 39.1011 -85.1800 179° South 259 298 27,600 720 Climbing Indianapolis Center
01:08PM 39.0358 -85.1792 179° South 240 276 28,000 240 Climbing Indianapolis Center
01:09PM 38.9614 -85.1794 180° South 260 299 28,100  Climbing Indianapolis Center
01:10PM 38.8700 -85.1797 180° South 273 314 28,100 -60 Level Indianapolis Center
01:11PM 38.7917 -85.1789 180° South 278 320 28,000 -60 Descending Indianapolis Center
01:12PM 38.7136 -85.1786 180° South 282 325 28,000  Level Indianapolis Center
01:13PM 38.6319 -85.1786 180° South 284 327 28,000  Level Indianapolis Center
01:14PM 38.5539 -85.1781 180° South 282 325 28,000  Level Indianapolis Center
01:15PM 38.4747 -85.1767 179° South 283 326 28,000  Level Indianapolis Center
01:16PM 38.3958 -85.1767 180° South 283 326 28,000  Level Indianapolis Center
01:17PM 38.3153 -85.1767 180° South 286 329 28,000  Level Indianapolis Center
01:18PM 38.2378 -85.1753 179° South 282 325 28,000  Level Indianapolis Center
01:19PM 38.1442 -85.1758 180° South 286 329 28,000  Level Indianapolis Center
01:21PM 38.0639 -85.1756 180° South 287 330 28,000  Level Indianapolis Center
01:22PM 37.9861 -85.1747 180° South 284 327 28,000  Level Indianapolis Center
01:23PM 37.9061 -85.1739 180° South 285 328 28,000  Level Indianapolis Center
01:24PM 37.8258 -85.1750 181° South 287 330 28,000  Level Indianapolis Center
01:25PM 37.7475 -85.1736 179° South 282 325 28,000  Level Indianapolis Center
01:26PM 37.6675 -85.1714 179° South 286 329 28,000  Level Indianapolis Center
01:27PM 37.5886 -85.1719 180° South 283 326 28,000  Level Indianapolis Center
01:28PM 37.4956 -85.1725 180° South 285 328 28,000  Level Indianapolis Center
01:29PM 37.4175 -85.1706 179° South 282 325 28,000  Level Indianapolis Center
01:30PM 37.3381 -85.1703 180° South 283 326 28,000  Level Indianapolis Center
01:31PM 37.2583 -85.1661 178° South 287 330 28,000  Level Indianapolis Center
01:32PM 37.1797 -85.1650 179° South 283 326 28,000  Level Indianapolis Center
01:33PM 37.0994 -85.1658 180° South 286 329 28,000  Level Indianapolis Center
01:34PM 37.0119 -85.1667 180° South 283 326 28,000  Level Indianapolis Center
01:35PM 36.9333 -85.1636 178° South 284 327 28,000  Level Indianapolis Center
01:36PM 36.8536 -85.1614 179° South 284 327 28,000  Level Indianapolis Center
01:37PM 36.7744 -85.1606 180° South 285 328 28,000  Level Indianapolis Center
01:38PM 36.6961 -85.1606 180° South 283 326 28,000  Level Indianapolis Center
01:39PM 36.6158 -85.1614 180° South 285 328 28,000  Level Indianapolis Center
01:40PM 36.5372 -85.1594 179° South 284 327 28,000  Level Indianapolis Center
01:41PM 36.4578 -85.1589 180° South 286 329 28,000  Level Indianapolis Center
01:42PM 36.3639 -85.1575 179° South 282 325 28,000  Level Indianapolis Center
01:43PM 36.2853 -85.1569 180° South 282 325 28,000  Level Indianapolis Center
01:44PM 36.2078 -85.1550 179° South 281 323 28,000  Level Indianapolis Center
01:45PM 36.1303 -85.1556 180° South 279 321 28,000 -120 Level Indianapolis Center
01:46PM 36.0514 -85.1533 179° South 284 327 27,800 -840 Descending Indianapolis Center
01:47PM 35.9661 -85.1522 179° South 303 349 26,400 -1,380 Descending Indianapolis Center
01:48PM 35.8781 -85.1467 177° South 320 368 25,100 -1,380 Descending Indianapolis Center
01:49PM 35.7908 -85.1364 175° South 315 362 23,600 -1,560 Descending Indianapolis Center
01:50PM 35.6894 -85.1239 174° South 313 360 22,000 -1,500 Descending Indianapolis Center
01:51PM 35.6031 -85.1167 176° South 309 356 20,500 -960 Descending Atlanta Center
01:52PM 35.5217 -85.1106 177° South 309 356 20,000 -300 Descending Atlanta Center
01:53PM 35.4467 -85.1044 176° South 296 341 20,000  Level Atlanta Center
01:54PM 35.3736 -85.1086 183° South 274 315 20,000  Level Atlanta Center
01:55PM 35.3047 -85.1128 183° South 264 304 20,000 -540 Level Atlanta Center
01:56PM 35.2336 -85.1169 183° South 258 297 19,000 -1,620 Descending Atlanta Center
01:57PM 35.1503 -85.1208 182° South 273 314 16,800 -2,220 Descending Atlanta Center
01:58PM 35.0689 -85.1222 181° South 285 328 14,600 -2,040 Descending Atlanta Center
01:59PM 34.9917 -85.1239 181° South 290 334 12,800 -1,800 Descending Atlanta Center
02:00PM 34.9144 -85.1253 181° South 290 334 11,000 -2,100 Descending Atlanta Center
02:01PM 34.8392 -85.1294 183° South 285 328 8,600 -1,920 Descending Atlanta Center
02:02PM 34.7683 -85.1286 179° South 270 311 7,200 -1,320 Descending Atlanta Center
02:03PM 34.6994 -85.1328 183° South 264 304 6,000 -1,320 Descending Atlanta Center
02:04PM 34.6283 -85.1319 179° South 242 278 4,600 -720 Descending Atlanta Center
02:05PM 34.5658 -85.1311 179° South 242 278 4,600 -300 Level Atlanta Center
02:06PM 34.4992 -85.1303 179° South 242 278 4,000 -300 Descending Atlanta Center
02:07PM 34.4303 -85.1292 179° South 242 278 4,000 -120 Level Atlanta Center
02:08PM 34.4111 -85.1517 224° Southwest 269 310 3,800 -240 Descending Atlanta Center